Pagrindinis puslapis
METAR-TAF:

METAR-TAF

Oro uostai :

Kemis, Suomija

platuma: 65-47N, ilguma: 024-35E, Aukštis: 15 m

Dabartinis oras

Ataskaita buvo paskelbta 17 minutes, ne 09:50 UTC
Vėjas 13 kt iš Šiaurės
Temperatūra -5°C
Drėgmė 93%
Slėgis 973 hPa
Matomumas: 9000 m
Su prošvaistėmis ne aukštis 1000 ft
Apsiniaukę ne aukštis 5000 ft
sniegas

METAR: EFKE 090950Z 01013KT 9000 -SN BKN010 OVC050 M05/M06 Q0973

Laikas: 12:07 (10:07 UTC)

Prognozė

Ataskaita buvo paskelbta 1 valandą ir 40 minutes, ne 08:27 UTC
Prognozė galioja nuo 09 metu 09 UTC su 09 metu 18 UTC
Vėjas 12 kt iš Šiaurės/Šiaurės Rytų
Matomumas: 8000 m
Išsisklaidę debesys ne aukštis 800 ft
Su prošvaistėmis ne aukštis 4500 ft
sniegas
Laikinai
nuo 09 metu 09 UTC su 09 metu 15 UTC
Matomumas: 2000 m
Su prošvaistėmis ne aukštis 700 ft
sniegas
Tapsmas
nuo 09 metu 15 UTC su 09 metu 17 UTC
Vėjas 7 kt iš Šiaurės Vakarų

TAF: EFKE 090827Z 0909/0918 02012KT 8000 -SN SCT008 BKN045 TEMPO 0909/0915 2000 -SN BKN007 BECMG 0915/0917 32007KT

Orai ataskaitas ir orų prognozės (METAR, TAF).

turimą stotys yra geltonos ir raudonos taškus žemėlapyje.

Perkelti pele per norėdami pamatyti stoties vardą.

Tada spustelėkite, norėdami matyti oro stebėjimo ir prognozės.

Norėdami pakeisti žemėlapį: spustelėkite ant žalios mygtukų su juodo kryžiaus žemyn,; žalią mygtuką su brūkšneliu, jei norite nutolinti; arba žalių rodyklių gretimoms žemėlapius.


METAR-TAF: